createdAt,value
2023-02-25T00:05:06.496Z,73.20
2023-02-25T00:10:14.188Z,73.20
2023-02-25T00:15:17.686Z,73.20
2023-02-25T00:20:22.550Z,73.20
2023-02-25T00:25:28.724Z,73.20
2023-02-25T00:30:32.227Z,73.20
2023-02-25T00:35:41.125Z,73.20
2023-02-25T00:40:45.377Z,73.10
2023-02-25T00:45:48.819Z,73.20
2023-02-25T00:50:53.586Z,73.20
2023-02-25T00:56:02.109Z,73.20
2023-02-25T01:01:07.950Z,73.30
2023-02-25T01:06:12.831Z,73.30
2023-02-25T01:11:21.103Z,73.20
2023-02-25T01:16:28.865Z,73.30
2023-02-25T01:21:39.639Z,73.20
2023-02-25T01:26:46.198Z,73.30
2023-02-25T01:31:53.617Z,73.30
2023-02-25T01:36:58.919Z,73.30
2023-02-25T01:42:08.296Z,73.20
2023-02-25T01:47:21.834Z,73.20
2023-02-25T01:52:27.272Z,73.30
2023-02-25T01:57:30.752Z,73.70
2023-02-25T02:02:34.287Z,73.30
2023-02-25T02:07:42.958Z,73.30
2023-02-25T02:12:48.104Z,73.30
2023-02-25T02:17:58.189Z,73.30
2023-02-25T02:23:41.033Z,73.40
2023-02-25T02:30:05.565Z,73.20
2023-02-25T02:35:23.487Z,73.20
2023-02-25T02:40:54.775Z,73.20
2023-02-25T02:46:06.755Z,73.30
2023-02-25T02:51:20.632Z,73.30
2023-02-25T02:56:27.319Z,73.20
2023-02-25T03:01:36.352Z,73.30
2023-02-25T03:06:45.574Z,73.30
2023-02-25T03:11:49.181Z,73.40
2023-02-25T03:17:00.294Z,73.30
2023-02-25T03:22:11.456Z,73.30
2023-02-25T03:27:28.458Z,73.30
2023-02-25T03:32:41.605Z,73.40
2023-02-25T03:37:52.264Z,73.30
2023-02-25T03:43:06.130Z,73.30
2023-02-25T03:48:13.520Z,73.30
2023-02-25T03:53:18.346Z,73.30
2023-02-25T03:58:33.859Z,73.20
2023-02-25T04:03:37.368Z,73.30
2023-02-25T04:08:43.294Z,73.30
2023-02-25T04:13:46.728Z,73.20
2023-02-25T04:18:50.224Z,73.20
2023-02-25T04:23:55.334Z,73.20
2023-02-25T04:28:58.744Z,73.30
2023-02-25T04:34:02.211Z,73.30
2023-02-25T04:39:07.375Z,73.30
2023-02-25T04:44:11.800Z,73.30
2023-02-25T04:49:15.176Z,73.30
2023-02-25T04:54:21.081Z,73.20
2023-02-25T04:59:26.687Z,73.20
2023-02-25T05:04:30.228Z,73.30
2023-02-25T05:09:36.013Z,73.30
2023-02-25T05:14:39.660Z,73.20
2023-02-25T05:19:43.227Z,73.20
2023-02-25T05:24:47.983Z,73.30
2023-02-25T05:29:51.690Z,73.30
2023-02-25T05:34:55.188Z,73.20
2023-02-25T05:39:59.984Z,73.30
2023-02-25T05:45:03.395Z,73.20
2023-02-25T05:50:08.240Z,73.20
2023-02-25T05:55:13.518Z,73.20
2023-02-25T06:00:21.432Z,73.30
2023-02-25T06:05:24.874Z,73.20
2023-02-25T06:10:29.736Z,73.20
2023-02-25T06:15:33.172Z,73.20
2023-02-25T06:20:36.868Z,73.20
2023-02-25T06:25:41.623Z,73.20
2023-02-25T06:30:45.059Z,73.20
2023-02-25T06:35:53.248Z,73.30
2023-02-25T06:40:57.996Z,73.30
2023-02-25T06:46:06.816Z,73.30
2023-02-25T06:51:11.534Z,73.20
2023-02-25T06:56:20.144Z,73.30
2023-02-25T07:01:23.626Z,73.30
2023-02-25T07:06:27.640Z,73.30
2023-02-25T07:11:34.828Z,73.20
2023-02-25T07:16:38.260Z,73.20
2023-02-25T07:21:41.801Z,73.20
2023-02-25T07:26:46.584Z,73.30
2023-02-25T07:31:50.084Z,73.20
2023-02-25T07:36:53.602Z,73.20
2023-02-25T07:41:58.369Z,73.20
2023-02-25T07:47:02.620Z,73.10
2023-02-25T07:52:05.992Z,73.20
2023-02-25T07:57:10.735Z,73.10
2023-02-25T08:02:14.342Z,73.10
2023-02-25T08:07:18.149Z,73.20
2023-02-25T08:12:23.109Z,73.10
2023-02-25T08:17:31.296Z,73.10
2023-02-25T08:22:34.526Z,73.10
2023-02-25T08:27:39.904Z,73.20
2023-02-25T08:32:43.581Z,73.10
2023-02-25T08:37:47.123Z,73.00
2023-02-25T08:42:51.918Z,73.10
2023-02-25T08:47:55.326Z,72.80
2023-02-25T08:52:59.110Z,72.80
2023-02-25T08:58:03.880Z,72.80
2023-02-25T09:03:07.336Z,72.80
2023-02-25T09:08:10.751Z,72.80
2023-02-25T09:13:15.870Z,72.70
2023-02-25T09:18:19.277Z,72.60
2023-02-25T09:23:22.726Z,72.60
2023-02-25T09:28:27.598Z,72.60
2023-02-25T09:33:32.640Z,72.70
2023-02-25T09:38:36.393Z,72.60
2023-02-25T09:43:43.529Z,72.60
2023-02-25T09:48:58.272Z,72.60
2023-02-25T09:54:17.629Z,72.60
2023-02-25T09:59:22.537Z,72.60
2023-02-25T10:04:35.127Z,72.50
2023-02-25T10:09:54.010Z,72.50
2023-02-25T10:15:31.259Z,72.50
2023-02-25T10:20:57.160Z,72.50
2023-02-25T10:26:13.220Z,72.40
2023-02-25T10:31:21.367Z,72.40
2023-02-25T10:36:33.721Z,72.40
2023-02-25T10:41:37.460Z,72.40
2023-02-25T10:46:51.347Z,72.40
2023-02-25T10:52:04.728Z,72.30
2023-02-25T10:57:14.969Z,72.30
2023-02-25T11:02:26.218Z,72.40
2023-02-25T11:07:42.109Z,72.40
2023-02-25T11:12:49.127Z,72.50
2023-02-25T11:17:55.578Z,72.50
2023-02-25T11:23:00.733Z,72.50
2023-02-25T11:28:05.164Z,72.50
2023-02-25T11:33:25.870Z,72.50
2023-02-25T11:38:35.167Z,72.60
2023-02-25T11:43:42.505Z,72.60
2023-02-25T11:48:54.297Z,72.60
2023-02-25T11:54:19.870Z,72.70
2023-02-25T11:59:38.148Z,72.60
2023-02-25T12:05:30.218Z,72.90
2023-02-25T12:11:24.223Z,72.60
2023-02-25T12:17:50.183Z,72.60
2023-02-25T12:23:38.015Z,72.50
2023-02-25T12:29:00.726Z,72.40
2023-02-25T13:18:23.474Z,73.20
2023-02-25T13:23:53.707Z,72.40
2023-02-25T13:29:21.175Z,72.40
2023-02-25T13:34:39.804Z,72.30
2023-02-25T13:40:22.194Z,72.20
2023-02-25T13:46:01.674Z,72.30
2023-02-25T13:51:31.216Z,72.40
2023-02-25T13:56:54.879Z,72.50
2023-02-25T14:02:24.552Z,72.50
2023-02-25T14:08:04.898Z,72.50
2023-02-25T14:13:39.436Z,72.50
2023-02-25T14:19:20.128Z,72.40
2023-02-25T14:24:37.416Z,72.20
2023-02-25T14:30:16.464Z,72.10
2023-02-25T14:35:48.027Z,72.10
2023-02-25T14:41:09.330Z,72.00
2023-02-25T14:46:31.966Z,72.00
2023-02-25T14:52:40.795Z,71.90
2023-02-25T15:37:37.390Z,72.50
2023-02-25T15:42:53.158Z,72.50
2023-02-25T15:48:38.062Z,72.50
2023-02-25T15:53:48.693Z,72.60
2023-02-25T15:58:53.933Z,72.60
2023-02-25T16:03:57.775Z,72.60
2023-02-25T16:09:11.196Z,72.40
2023-02-25T16:14:21.725Z,72.50
2023-02-25T16:19:30.773Z,72.20
2023-02-25T16:24:38.200Z,72.30
2023-02-25T16:29:56.830Z,72.30
2023-02-25T16:35:10.886Z,72.30
2023-02-25T16:40:29.262Z,72.20
2023-02-25T16:45:44.704Z,72.30
2023-02-25T16:50:51.042Z,72.40
2023-02-25T16:56:01.792Z,72.50
2023-02-25T17:01:07.598Z,72.60
2023-02-25T17:06:19.393Z,72.60
2023-02-25T17:11:26.377Z,73.40
2023-02-25T17:16:33.060Z,72.80
2023-02-25T17:21:38.827Z,73.40
2023-02-25T17:26:46.552Z,72.70
2023-02-25T17:31:53.564Z,72.80
2023-02-25T17:37:00.280Z,72.80
2023-02-25T17:42:29.991Z,72.80
2023-02-25T17:47:37.141Z,72.80
2023-02-25T17:52:41.496Z,72.80
2023-02-25T17:57:46.279Z,72.90
2023-02-25T18:03:10.299Z,72.80
2023-02-25T18:08:20.986Z,72.80
2023-02-25T18:13:35.532Z,72.80
2023-02-25T18:18:38.957Z,72.90
2023-02-25T18:23:42.422Z,72.90
2023-02-25T18:28:47.485Z,72.90
2023-02-25T18:33:52.101Z,72.90
2023-02-25T18:39:01.124Z,72.90
2023-02-25T18:44:10.883Z,72.90
2023-02-25T18:49:14.279Z,73.00
2023-02-25T18:54:18.184Z,72.90
2023-02-25T18:59:22.992Z,73.00
2023-02-25T19:04:27.390Z,73.00
2023-02-25T19:09:30.813Z,72.90
2023-02-25T19:14:35.608Z,72.90
2023-02-25T19:19:39.029Z,73.00
2023-02-25T19:24:43.255Z,72.90
2023-02-25T19:29:49.745Z,72.90
2023-02-25T19:34:53.557Z,73.00
2023-02-25T19:39:56.926Z,73.00
2023-02-25T19:45:01.674Z,73.00
2023-02-25T19:50:07.092Z,73.00
2023-02-25T19:55:13.328Z,73.00
2023-02-25T20:00:22.650Z,73.00
2023-02-25T20:05:26.749Z,73.10
2023-02-25T20:10:30.358Z,73.00
2023-02-25T20:15:35.286Z,73.10
2023-02-25T20:20:42.603Z,73.10
2023-02-25T20:25:46.187Z,73.10
2023-02-25T20:30:50.977Z,73.10
2023-02-25T20:35:54.871Z,73.10
2023-02-25T20:40:58.891Z,73.10
2023-02-25T20:46:04.130Z,73.10
2023-02-25T20:51:09.366Z,73.10
2023-02-25T20:56:15.252Z,73.20
2023-02-25T21:01:20.630Z,73.10
2023-02-25T21:06:26.983Z,73.10
2023-02-25T21:11:30.474Z,73.10
2023-02-25T21:16:35.757Z,73.10
2023-02-25T21:21:39.707Z,73.20
2023-02-25T21:26:44.065Z,73.10
2023-02-25T21:31:49.658Z,73.20
2023-02-25T21:36:53.230Z,73.20
2023-02-25T21:41:56.663Z,73.20
2023-02-25T21:47:01.785Z,73.20
2023-02-25T21:52:06.049Z,73.10
2023-02-25T21:57:09.466Z,73.20
2023-02-25T22:02:14.311Z,73.20
2023-02-25T22:07:17.957Z,73.10
2023-02-25T22:12:21.444Z,73.20
2023-02-25T22:17:26.199Z,73.20
2023-02-25T22:22:29.641Z,73.20
2023-02-25T22:27:33.563Z,73.20
2023-02-25T22:32:38.820Z,73.20
2023-02-25T22:37:42.411Z,73.30
2023-02-25T22:42:45.855Z,73.20
2023-02-25T22:47:50.647Z,73.20
2023-02-25T22:52:54.076Z,73.30
2023-02-25T22:57:57.594Z,73.20
2023-02-25T23:03:02.479Z,73.20
2023-02-25T23:08:06.916Z,73.30
2023-02-25T23:13:11.499Z,73.30
2023-02-25T23:18:19.050Z,73.30
2023-02-25T23:23:22.616Z,73.20
2023-02-25T23:28:26.107Z,73.30
2023-02-25T23:33:31.614Z,73.20
2023-02-25T23:38:35.023Z,73.30
2023-02-25T23:43:38.431Z,73.20
2023-02-25T23:48:43.247Z,73.30
2023-02-25T23:53:46.626Z,73.20
2023-02-25T23:58:51.278Z,73.20
